Holborn, United Kingdom
Current Conditions -  °F | °C
As of 1:50 PM on Saturday 01 Nov 2014 (Local Time) from EGLC Reporting Station
Scattered Clouds Scattered Clouds  
Wind Chill: 18°   Ceiling: Unl
Heat Index: 18°   Visibility: 6mi
Dew Point:   Wind: 10mph
Humidity: 52%   Direction: 240°WSW
Pressure: 29.97"   Gusts: NA
Location:  51.52°N, 0.11°W
Report Text: EGLC 011350Z AUTO 24009KT 210V270 9999 SCT040/// 18/08 Q1015
Loading
Personal Weather Stations






























Interactive Weather Map
Tropical Storm Tracking
New forecast layout! Learn more

10-Day Weather Forecast

Advertisements
Track Severe Weather on mobile